createdAt,value
2018-05-18T00:00:07.562Z,964.73
2018-05-18T00:01:07.497Z,964.69
2018-05-18T00:02:07.435Z,964.71
2018-05-18T00:03:07.372Z,964.69
2018-05-18T00:04:07.314Z,964.68
2018-05-18T00:05:07.247Z,964.64
2018-05-18T00:06:07.182Z,964.66
2018-05-18T00:07:07.120Z,964.64
2018-05-18T00:08:07.057Z,964.66
2018-05-18T00:09:06.996Z,964.63
2018-05-18T00:10:06.932Z,964.67
2018-05-18T00:11:06.868Z,964.67
2018-05-18T00:12:06.806Z,964.63
2018-05-18T00:13:06.744Z,964.71
2018-05-18T00:14:06.679Z,964.67
2018-05-18T00:15:06.616Z,964.69
2018-05-18T00:16:06.556Z,964.64
2018-05-18T00:17:06.491Z,964.64
2018-05-18T00:18:06.428Z,964.65
2018-05-18T00:19:06.365Z,964.70
2018-05-18T00:20:06.322Z,964.69
2018-05-18T00:21:06.240Z,964.67
2018-05-18T00:22:06.180Z,964.66
2018-05-18T00:23:06.115Z,964.66
2018-05-18T00:24:06.050Z,964.65
2018-05-18T00:25:05.988Z,964.60
2018-05-18T00:26:05.925Z,964.62
2018-05-18T00:27:05.863Z,964.59
2018-05-18T00:28:05.801Z,964.59
2018-05-18T00:29:05.737Z,964.56
2018-05-18T00:30:05.675Z,964.62
2018-05-18T00:31:05.611Z,964.60
2018-05-18T00:32:05.549Z,964.58
2018-05-18T00:33:05.485Z,964.61
2018-05-18T00:34:05.437Z,964.60
2018-05-18T00:35:05.360Z,964.59
2018-05-18T00:36:05.297Z,964.56
2018-05-18T00:37:05.237Z,964.57
2018-05-18T00:38:05.173Z,964.57
2018-05-18T00:39:05.111Z,964.54
2018-05-18T00:40:05.212Z,964.58
2018-05-18T00:41:04.983Z,964.53
2018-05-18T00:42:04.922Z,964.54
2018-05-18T00:43:04.858Z,964.51
2018-05-18T00:44:04.795Z,964.53
2018-05-18T00:45:04.733Z,964.50
2018-05-18T00:46:04.670Z,964.55
2018-05-18T00:47:04.607Z,964.51
2018-05-18T00:48:04.545Z,964.52
2018-05-18T00:49:04.481Z,964.45
2018-05-18T00:50:04.418Z,964.50
2018-05-18T00:51:04.355Z,964.49
2018-05-18T00:52:04.292Z,964.49
2018-05-18T00:53:04.232Z,964.47
2018-05-18T00:54:04.168Z,964.46
2018-05-18T00:55:04.105Z,964.45
2018-05-18T00:56:04.042Z,964.46
2018-05-18T00:57:03.978Z,964.45
2018-05-18T00:58:03.920Z,964.44
2018-05-18T00:59:03.856Z,964.43
2018-05-18T01:00:03.789Z,964.43
2018-05-18T01:01:03.732Z,964.45
2018-05-18T01:02:03.666Z,964.43
2018-05-18T01:03:03.616Z,964.41
2018-05-18T01:04:03.542Z,964.44
2018-05-18T01:05:03.476Z,964.38
2018-05-18T01:06:03.413Z,964.37
2018-05-18T01:07:03.357Z,964.40
2018-05-18T01:08:03.286Z,964.40
2018-05-18T01:09:03.225Z,964.41
2018-05-18T01:10:03.163Z,964.39
2018-05-18T01:11:03.097Z,964.41
2018-05-18T01:12:03.036Z,964.41
2018-05-18T01:13:02.975Z,964.43
2018-05-18T01:14:02.910Z,964.41
2018-05-18T01:15:02.847Z,964.43
2018-05-18T01:16:02.785Z,964.42
2018-05-18T01:17:02.720Z,964.39
2018-05-18T01:18:02.659Z,964.38
2018-05-18T01:19:02.595Z,964.39
2018-05-18T01:20:02.534Z,964.40
2018-05-18T01:21:02.469Z,964.38
2018-05-18T01:22:02.409Z,964.44
2018-05-18T01:23:02.344Z,964.42
2018-05-18T01:24:02.279Z,964.42
2018-05-18T01:25:02.219Z,964.46
2018-05-18T01:26:02.154Z,964.41
2018-05-18T01:27:02.093Z,964.45
2018-05-18T01:28:02.029Z,964.44
2018-05-18T01:29:01.964Z,964.48
2018-05-18T01:30:01.904Z,964.48
2018-05-18T01:31:01.839Z,964.46
2018-05-18T01:32:01.778Z,964.45
2018-05-18T01:33:01.712Z,964.45
2018-05-18T01:34:01.654Z,964.47
2018-05-18T01:35:01.587Z,964.46
2018-05-18T01:36:01.524Z,964.46
2018-05-18T01:37:01.462Z,964.46
2018-05-18T01:38:01.397Z,964.49
2018-05-18T01:39:01.335Z,964.47
2018-05-18T01:40:01.272Z,964.45
2018-05-18T01:41:01.209Z,964.46
2018-05-18T01:42:01.146Z,964.46
2018-05-18T01:43:01.083Z,964.46
2018-05-18T01:44:01.021Z,964.50
2018-05-18T01:45:00.969Z,964.49
2018-05-18T01:46:00.895Z,964.51
2018-05-18T01:47:00.830Z,964.46
2018-05-18T01:48:00.769Z,964.47
2018-05-18T01:49:00.705Z,964.48
2018-05-18T01:50:00.641Z,964.47
2018-05-18T01:51:00.578Z,964.44
2018-05-18T01:52:00.514Z,964.46
2018-05-18T01:53:00.451Z,964.42
2018-05-18T01:54:00.390Z,964.45
2018-05-18T01:55:00.325Z,964.43
2018-05-18T01:56:00.263Z,964.43
2018-05-18T01:57:00.200Z,964.43
2018-05-18T01:58:00.135Z,964.48
2018-05-18T01:59:00.073Z,964.46
2018-05-18T02:00:00.015Z,964.47
2018-05-18T02:00:59.946Z,964.46
2018-05-18T02:01:59.885Z,964.49
2018-05-18T02:02:59.820Z,964.45
2018-05-18T02:03:59.757Z,964.44
2018-05-18T02:04:59.694Z,964.48
2018-05-18T02:05:59.630Z,964.50
2018-05-18T02:06:59.568Z,964.49
2018-05-18T02:07:59.504Z,964.49
2018-05-18T02:08:59.441Z,964.50
2018-05-18T02:09:59.380Z,964.53
2018-05-18T02:10:59.314Z,964.55
2018-05-18T02:11:59.251Z,964.51
2018-05-18T02:12:59.188Z,964.51
2018-05-18T02:13:59.125Z,964.53
2018-05-18T02:14:59.062Z,964.53
2018-05-18T02:15:58.998Z,964.53
2018-05-18T02:16:58.935Z,964.54
2018-05-18T02:17:58.871Z,964.52
2018-05-18T02:18:58.807Z,964.54
2018-05-18T02:19:58.746Z,964.57
2018-05-18T02:20:58.681Z,964.55
2018-05-18T02:21:58.620Z,964.56
2018-05-18T02:22:58.556Z,964.53
2018-05-18T02:23:58.494Z,964.55
2018-05-18T02:24:58.431Z,964.51
2018-05-18T02:25:58.368Z,964.51
2018-05-18T02:26:58.302Z,964.50
2018-05-18T02:27:58.240Z,964.52
2018-05-18T02:28:58.177Z,964.52
2018-05-18T02:29:58.113Z,964.48
2018-05-18T02:30:58.049Z,964.48
2018-05-18T02:31:57.986Z,964.49
2018-05-18T02:32:57.924Z,964.49
2018-05-18T02:33:57.860Z,964.49
2018-05-18T02:34:57.796Z,964.45
2018-05-18T02:35:57.733Z,964.46
2018-05-18T02:36:57.670Z,964.49
2018-05-18T02:37:57.608Z,964.47
2018-05-18T02:38:57.543Z,964.46
2018-05-18T02:39:57.480Z,964.48
2018-05-18T02:40:57.417Z,964.47
2018-05-18T02:41:57.353Z,964.50
2018-05-18T02:42:57.294Z,964.46
2018-05-18T02:43:57.232Z,964.49
2018-05-18T02:44:57.163Z,964.48
2018-05-18T02:45:57.101Z,964.48
2018-05-18T02:46:57.038Z,964.52
2018-05-18T02:47:56.974Z,964.52
2018-05-18T02:48:56.910Z,964.50
2018-05-18T02:49:56.847Z,964.48
2018-05-18T02:50:56.784Z,964.48
2018-05-18T02:51:56.721Z,964.50
2018-05-18T02:52:56.655Z,964.52
2018-05-18T02:53:56.593Z,964.47
2018-05-18T02:54:56.529Z,964.45
2018-05-18T02:55:56.475Z,964.51
2018-05-18T02:56:56.402Z,964.50
2018-05-18T02:57:56.338Z,964.47
2018-05-18T02:58:56.277Z,964.50
2018-05-18T02:59:56.213Z,964.49
2018-05-18T03:00:56.157Z,964.49
2018-05-18T03:01:56.088Z,964.45
2018-05-18T03:02:56.021Z,964.47
2018-05-18T03:03:55.960Z,964.47
2018-05-18T03:04:55.897Z,964.45
2018-05-18T03:05:55.831Z,964.51
2018-05-18T03:06:55.770Z,964.47
2018-05-18T03:07:55.705Z,964.47
2018-05-18T03:08:55.643Z,964.46
2018-05-18T03:09:55.579Z,964.46
2018-05-18T03:10:55.518Z,964.47
2018-05-18T03:11:55.455Z,964.52
2018-05-18T03:12:55.393Z,964.49
2018-05-18T03:13:55.324Z,964.48
2018-05-18T03:14:55.263Z,964.45
2018-05-18T03:15:55.197Z,964.48
2018-05-18T03:16:55.136Z,964.48
2018-05-18T03:17:55.071Z,964.47
2018-05-18T03:18:55.008Z,964.53
2018-05-18T03:19:54.946Z,964.50
2018-05-18T03:20:54.934Z,964.47
2018-05-18T03:21:54.818Z,964.50
2018-05-18T03:22:54.754Z,964.50
2018-05-18T03:23:54.691Z,964.51
2018-05-18T03:24:54.627Z,964.48
2018-05-18T03:25:54.563Z,964.54
2018-05-18T03:26:54.504Z,964.51
2018-05-18T03:27:54.455Z,964.51
2018-05-18T03:28:54.394Z,964.52
2018-05-18T03:29:54.326Z,964.53
2018-05-18T03:30:54.254Z,964.50
2018-05-18T03:31:54.183Z,964.55
2018-05-18T03:32:54.118Z,964.53
2018-05-18T03:33:54.056Z,964.54
2018-05-18T03:34:53.992Z,964.60
2018-05-18T03:35:53.928Z,964.59
2018-05-18T03:36:53.865Z,964.60
2018-05-18T03:37:53.803Z,964.61
2018-05-18T03:38:53.743Z,964.60
2018-05-18T03:39:53.676Z,964.65
2018-05-18T03:40:53.611Z,964.67
2018-05-18T03:41:53.549Z,964.68
2018-05-18T03:42:53.483Z,964.64
2018-05-18T03:43:53.421Z,964.68
2018-05-18T03:44:53.358Z,964.70
2018-05-18T03:45:53.295Z,964.65
2018-05-18T03:46:53.230Z,964.65
2018-05-18T03:47:53.167Z,964.70
2018-05-18T03:48:53.108Z,964.68
2018-05-18T03:49:53.041Z,964.69
2018-05-18T03:50:52.975Z,964.69
2018-05-18T03:51:52.912Z,964.68
2018-05-18T03:52:52.850Z,964.72
2018-05-18T03:53:52.787Z,964.70
2018-05-18T03:54:52.725Z,964.70
2018-05-18T03:55:52.657Z,964.70
2018-05-18T03:56:52.597Z,964.68
2018-05-18T03:57:52.533Z,964.69
2018-05-18T03:58:52.469Z,964.71
2018-05-18T03:59:52.405Z,964.69
2018-05-18T04:00:52.357Z,964.72
2018-05-18T04:01:52.277Z,964.74
2018-05-18T04:02:52.219Z,964.74
2018-05-18T04:03:52.151Z,964.76
2018-05-18T04:04:52.089Z,964.75
2018-05-18T04:05:52.025Z,964.72
2018-05-18T04:06:51.959Z,964.77
2018-05-18T04:07:51.910Z,964.76
2018-05-18T04:08:51.835Z,964.74
2018-05-18T04:09:51.774Z,964.77
2018-05-18T04:10:51.729Z,964.78
2018-05-18T04:11:51.642Z,964.83
2018-05-18T04:12:51.580Z,964.83
2018-05-18T04:13:51.516Z,964.85
2018-05-18T04:14:51.452Z,964.87
2018-05-18T04:15:51.390Z,964.85
2018-05-18T04:16:51.326Z,964.87
2018-05-18T04:17:51.264Z,964.88
2018-05-18T04:18:51.198Z,964.87
2018-05-18T04:19:51.227Z,964.88
2018-05-18T04:20:51.073Z,964.89
2018-05-18T04:21:51.009Z,964.86
2018-05-18T04:22:50.946Z,964.84
2018-05-18T04:23:50.883Z,964.90
2018-05-18T04:24:50.819Z,964.88
2018-05-18T04:25:50.761Z,964.87
2018-05-18T04:26:50.692Z,964.92
2018-05-18T04:27:50.629Z,964.93
2018-05-18T04:28:50.566Z,964.91
2018-05-18T04:29:50.503Z,964.90
2018-05-18T04:30:50.440Z,964.90
2018-05-18T04:31:50.376Z,964.89
2018-05-18T04:32:50.314Z,964.88
2018-05-18T04:33:50.250Z,964.86
2018-05-18T04:34:50.186Z,964.89
2018-05-18T04:35:50.124Z,964.92
2018-05-18T04:36:50.060Z,964.92
2018-05-18T04:37:49.996Z,964.89
2018-05-18T04:38:49.933Z,964.90
2018-05-18T04:39:49.870Z,964.90
2018-05-18T04:40:49.808Z,964.89
2018-05-18T04:41:49.747Z,964.93
2018-05-18T04:42:49.679Z,964.94
2018-05-18T04:43:49.616Z,964.91
2018-05-18T04:44:49.555Z,964.91
2018-05-18T04:45:49.491Z,964.91
2018-05-18T04:46:49.428Z,964.95
2018-05-18T04:47:49.364Z,965.01
2018-05-18T04:48:49.301Z,964.98
2018-05-18T04:49:49.239Z,964.97
2018-05-18T04:50:49.175Z,965.00
2018-05-18T04:51:49.112Z,964.99
2018-05-18T04:52:49.049Z,964.96
2018-05-18T04:53:48.985Z,964.97
2018-05-18T04:54:48.923Z,964.96
2018-05-18T04:55:48.860Z,965.01
2018-05-18T04:56:48.796Z,965.03
2018-05-18T04:57:48.734Z,965.04
2018-05-18T04:58:48.704Z,965.05
2018-05-18T04:59:48.636Z,965.06
2018-05-18T05:00:48.543Z,965.08
2018-05-18T05:01:48.505Z,965.06
2018-05-18T05:02:48.437Z,965.10
2018-05-18T05:03:48.431Z,965.08
2018-05-18T05:04:48.347Z,965.11
2018-05-18T05:05:48.297Z,965.08
2018-05-18T05:06:48.167Z,965.06
2018-05-18T05:07:48.103Z,965.08
2018-05-18T05:08:48.040Z,965.04
2018-05-18T05:09:47.978Z,965.10
2018-05-18T05:10:47.913Z,965.10
2018-05-18T05:11:47.852Z,965.09
2018-05-18T05:12:47.788Z,965.08
2018-05-18T05:13:47.726Z,965.16
2018-05-18T05:14:47.662Z,965.10
2018-05-18T05:15:47.600Z,965.15
2018-05-18T05:16:47.539Z,965.12
2018-05-18T05:17:47.561Z,965.12
2018-05-18T05:18:47.411Z,965.15
2018-05-18T05:19:47.349Z,965.17
2018-05-18T05:20:47.285Z,965.14
2018-05-18T05:21:47.223Z,965.15
2018-05-18T05:22:47.160Z,965.17
2018-05-18T05:23:47.108Z,965.16
2018-05-18T05:24:47.041Z,965.16
2018-05-18T05:25:46.973Z,965.19
2018-05-18T05:26:46.909Z,965.15
2018-05-18T05:27:46.940Z,965.16
2018-05-18T05:28:46.785Z,965.20
2018-05-18T05:29:46.734Z,965.18
2018-05-18T05:30:46.659Z,965.21
2018-05-18T05:31:46.596Z,965.23
2018-05-18T05:32:46.535Z,965.26
2018-05-18T05:33:46.471Z,965.21
2018-05-18T05:34:46.410Z,965.22
2018-05-18T05:35:46.346Z,965.24
2018-05-18T05:36:46.386Z,965.29
2018-05-18T05:37:46.223Z,965.28
2018-05-18T05:38:46.159Z,965.27
2018-05-18T05:39:46.096Z,965.29
2018-05-18T05:40:46.033Z,965.31
2018-05-18T05:41:45.972Z,965.30
2018-05-18T05:42:45.911Z,965.30
2018-05-18T05:43:45.849Z,965.33
2018-05-18T05:44:45.785Z,965.34
2018-05-18T05:45:45.724Z,965.30
2018-05-18T05:46:45.677Z,965.30
2018-05-18T05:47:45.602Z,965.30
2018-05-18T05:48:45.535Z,965.27
2018-05-18T05:49:45.475Z,965.28
2018-05-18T05:50:45.410Z,965.31
2018-05-18T05:51:45.348Z,965.25
2018-05-18T05:52:45.368Z,965.26
2018-05-18T05:53:45.225Z,965.22
2018-05-18T05:54:45.171Z,965.23
2018-05-18T05:55:45.106Z,965.23
2018-05-18T05:56:45.039Z,965.26
2018-05-18T05:57:44.978Z,965.22
2018-05-18T05:58:44.914Z,965.18
2018-05-18T05:59:44.851Z,965.22
2018-05-18T06:00:44.791Z,965.23
2018-05-18T06:01:44.727Z,965.25
2018-05-18T06:02:44.666Z,965.22
2018-05-18T06:03:44.604Z,965.24
2018-05-18T06:04:44.541Z,965.23
2018-05-18T06:05:44.480Z,965.23
2018-05-18T06:06:44.416Z,965.25
2018-05-18T06:07:44.356Z,965.25
2018-05-18T06:08:44.293Z,965.29
2018-05-18T06:09:44.231Z,965.29
2018-05-18T06:10:44.169Z,965.27
2018-05-18T06:11:44.108Z,965.30
2018-05-18T06:12:44.044Z,965.32
2018-05-18T06:13:43.984Z,965.32
2018-05-18T06:14:43.921Z,965.33
2018-05-18T06:15:43.860Z,965.35
2018-05-18T06:16:43.798Z,965.29
2018-05-18T06:17:43.738Z,965.32
2018-05-18T06:18:43.677Z,965.26
2018-05-18T06:19:43.613Z,965.27
2018-05-18T06:20:43.562Z,965.29
2018-05-18T06:21:43.489Z,965.26
2018-05-18T06:22:43.428Z,965.29
2018-05-18T06:23:43.365Z,965.29
2018-05-18T06:24:43.309Z,965.29
2018-05-18T06:25:43.245Z,965.33
2018-05-18T06:26:43.182Z,965.32
2018-05-18T06:27:43.120Z,965.26
2018-05-18T06:28:43.126Z,965.29
2018-05-18T06:29:43.006Z,965.23
2018-05-18T06:30:42.936Z,965.28
2018-05-18T06:31:42.873Z,965.27
2018-05-18T06:32:42.813Z,965.27
2018-05-18T06:33:42.752Z,965.31
2018-05-18T06:34:42.748Z,965.28
2018-05-18T06:35:42.627Z,965.30
2018-05-18T06:36:42.567Z,965.28
2018-05-18T06:37:42.507Z,965.28
2018-05-18T06:38:42.446Z,965.28
2018-05-18T06:39:42.382Z,965.27
2018-05-18T06:40:42.322Z,965.26
2018-05-18T06:41:42.262Z,965.27
2018-05-18T06:42:42.198Z,965.30
2018-05-18T06:43:42.138Z,965.30
2018-05-18T06:44:42.073Z,965.29
2018-05-18T06:45:42.015Z,965.27
2018-05-18T06:46:41.990Z,965.29
2018-05-18T06:47:41.891Z,965.31
2018-05-18T06:48:41.830Z,965.29
2018-05-18T06:49:41.771Z,965.28
2018-05-18T06:50:41.707Z,965.32
2018-05-18T06:51:41.649Z,965.28
2018-05-18T06:52:41.627Z,965.28
2018-05-18T06:53:41.526Z,965.32
2018-05-18T06:54:41.464Z,965.30
2018-05-18T06:55:41.404Z,965.29
2018-05-18T06:56:41.348Z,965.34
2018-05-18T06:57:41.283Z,965.36
2018-05-18T06:58:41.303Z,965.34
2018-05-18T06:59:41.165Z,965.35
2018-05-18T07:00:41.100Z,965.35
2018-05-18T07:01:41.039Z,965.34
2018-05-18T07:02:40.976Z,965.36
2018-05-18T07:03:40.918Z,965.33
2018-05-18T07:04:40.862Z,965.33
2018-05-18T07:05:40.798Z,965.35
2018-05-18T07:06:40.735Z,965.35
2018-05-18T07:07:40.676Z,965.33
2018-05-18T07:08:40.615Z,965.37
2018-05-18T07:09:40.556Z,965.33
2018-05-18T07:10:40.493Z,965.31
2018-05-18T07:11:40.433Z,965.31
2018-05-18T07:12:40.372Z,965.33
2018-05-18T07:13:40.314Z,965.32
2018-05-18T07:14:40.253Z,965.34
2018-05-18T07:15:40.193Z,965.31
2018-05-18T07:16:40.132Z,965.27
2018-05-18T07:17:40.072Z,965.30
2018-05-18T07:18:40.011Z,965.28
2018-05-18T07:19:39.951Z,965.28
2018-05-18T07:20:39.898Z,965.26
2018-05-18T07:21:39.834Z,965.24
2018-05-18T07:22:39.771Z,965.20
2018-05-18T07:23:39.712Z,965.22
2018-05-18T07:24:39.652Z,965.25
2018-05-18T07:25:39.594Z,965.24
2018-05-18T07:26:39.532Z,965.25
2018-05-18T07:27:39.471Z,965.23
2018-05-18T07:28:39.413Z,965.23
2018-05-18T07:29:39.355Z,965.27
2018-05-18T07:30:39.294Z,965.30
2018-05-18T07:31:39.232Z,965.28
2018-05-18T07:32:39.175Z,965.31
2018-05-18T07:33:39.113Z,965.31
2018-05-18T07:34:39.058Z,965.29
2018-05-18T07:35:38.996Z,965.34
2018-05-18T07:36:38.936Z,965.34
2018-05-18T07:37:38.875Z,965.31
2018-05-18T07:38:38.813Z,965.33
2018-05-18T07:39:38.759Z,965.37
2018-05-18T07:40:38.703Z,965.34
2018-05-18T07:41:38.639Z,965.34
2018-05-18T07:42:38.578Z,965.34
2018-05-18T07:43:38.519Z,965.33
2018-05-18T07:44:38.459Z,965.34
2018-05-18T07:45:38.399Z,965.35
2018-05-18T07:46:38.339Z,965.33
2018-05-18T07:47:38.281Z,965.35
2018-05-18T07:48:38.222Z,965.39
2018-05-18T07:49:38.163Z,965.35
2018-05-18T07:50:38.104Z,965.28
2018-05-18T07:51:38.042Z,965.30
2018-05-18T07:52:37.984Z,965.33
2018-05-18T07:53:38.019Z,965.30
2018-05-18T07:54:37.865Z,965.36
2018-05-18T07:55:37.807Z,965.31
2018-05-18T07:56:37.748Z,965.33
2018-05-18T07:57:37.690Z,965.31
2018-05-18T07:58:37.629Z,965.31
2018-05-18T07:59:37.604Z,965.33
2018-05-18T08:00:37.510Z,965.29
2018-05-18T08:01:37.453Z,965.32
2018-05-18T08:02:37.394Z,965.38
2018-05-18T08:03:37.334Z,965.34
2018-05-18T08:04:37.278Z,965.33
2018-05-18T08:05:37.216Z,965.30
2018-05-18T08:06:37.159Z,965.31
2018-05-18T08:07:37.097Z,965.32
2018-05-18T08:08:37.040Z,965.30
2018-05-18T08:09:36.991Z,965.32
2018-05-18T08:10:36.922Z,965.35
2018-05-18T08:11:36.862Z,965.30
2018-05-18T08:12:36.803Z,965.28
2018-05-18T08:13:36.744Z,965.29
2018-05-18T08:14:36.687Z,965.31
2018-05-18T08:15:36.625Z,965.26
2018-05-18T08:16:36.570Z,965.33
2018-05-18T08:17:36.512Z,965.32
2018-05-18T08:18:36.453Z,965.33
2018-05-18T08:19:36.393Z,965.31
2018-05-18T08:20:36.339Z,965.35
2018-05-18T08:21:36.360Z,965.36
2018-05-18T08:22:36.218Z,965.38
2018-05-18T08:23:36.155Z,965.36
2018-05-18T08:24:36.113Z,965.36
2018-05-18T08:25:36.040Z,965.36
2018-05-18T08:26:35.986Z,965.30
2018-05-18T08:27:35.947Z,965.32
2018-05-18T08:28:35.869Z,965.35
2018-05-18T08:29:35.807Z,965.33
2018-05-18T08:30:35.755Z,965.33
2018-05-18T08:31:35.689Z,965.33
2018-05-18T08:32:35.631Z,965.32
2018-05-18T08:33:35.571Z,965.35
2018-05-18T08:34:35.514Z,965.38
2018-05-18T08:35:35.454Z,965.35
2018-05-18T08:36:35.401Z,965.36
2018-05-18T08:37:35.339Z,965.34
2018-05-18T08:38:35.279Z,965.34
2018-05-18T08:39:35.219Z,965.29
2018-05-18T08:40:35.163Z,965.33
2018-05-18T08:41:35.104Z,965.30
2018-05-18T08:42:35.042Z,965.31
2018-05-18T08:43:34.985Z,965.32
2018-05-18T08:44:34.926Z,965.31
2018-05-18T08:45:34.869Z,965.31
2018-05-18T08:46:34.808Z,965.32
2018-05-18T08:47:34.798Z,965.32
2018-05-18T08:48:34.699Z,965.33
2018-05-18T08:49:34.636Z,965.32
2018-05-18T08:50:34.575Z,965.28
2018-05-18T08:51:34.519Z,965.28
2018-05-18T08:52:34.460Z,965.28
2018-05-18T08:53:34.403Z,965.28
2018-05-18T08:54:34.341Z,965.26
2018-05-18T08:55:34.305Z,965.27
2018-05-18T08:56:34.225Z,965.28
2018-05-18T08:57:34.167Z,965.29
2018-05-18T08:58:34.111Z,965.28
2018-05-18T08:59:34.051Z,965.35
2018-05-18T09:00:34.055Z,965.32
2018-05-18T09:01:33.933Z,965.33
2018-05-18T09:02:33.874Z,965.28
2018-05-18T09:03:33.815Z,965.32
2018-05-18T09:04:33.761Z,965.33
2018-05-18T09:05:33.700Z,965.31
2018-05-18T09:06:33.641Z,965.31
2018-05-18T09:07:33.581Z,965.30
2018-05-18T09:08:33.523Z,965.26
2018-05-18T09:09:33.467Z,965.27
2018-05-18T09:10:33.406Z,965.25
2018-05-18T09:11:33.356Z,965.33
2018-05-18T09:12:33.289Z,965.33
2018-05-18T09:13:33.230Z,965.31
2018-05-18T09:14:33.172Z,965.28
2018-05-18T09:15:33.113Z,965.34
2018-05-18T09:16:33.058Z,965.37
2018-05-18T09:17:32.997Z,965.37
2018-05-18T09:18:32.944Z,965.38
2018-05-18T09:19:32.880Z,965.38
2018-05-18T09:20:32.823Z,965.41
2018-05-18T09:21:32.764Z,965.40
2018-05-18T09:22:32.705Z,965.44
2018-05-18T09:23:32.646Z,965.41
2018-05-18T09:24:32.598Z,965.45
2018-05-18T09:25:32.530Z,965.42
2018-05-18T09:26:32.475Z,965.42
2018-05-18T09:27:32.414Z,965.44
2018-05-18T09:28:32.357Z,965.43
2018-05-18T09:29:32.302Z,965.41
2018-05-18T09:30:32.238Z,965.43
2018-05-18T09:31:32.185Z,965.50
2018-05-18T09:32:32.128Z,965.50
2018-05-18T09:33:32.066Z,965.59
2018-05-18T09:34:32.008Z,965.59
2018-05-18T09:35:31.952Z,965.58
2018-05-18T09:36:31.894Z,965.58
2018-05-18T09:37:31.839Z,965.59
2018-05-18T09:38:31.781Z,965.56
2018-05-18T09:39:31.725Z,965.56
2018-05-18T09:40:31.678Z,965.55
2018-05-18T09:41:31.610Z,965.56
2018-05-18T09:42:31.555Z,965.61
2018-05-18T09:43:31.497Z,965.62
2018-05-18T09:44:31.443Z,965.61
2018-05-18T09:45:31.387Z,965.60
2018-05-18T09:46:31.328Z,965.63
2018-05-18T09:47:31.274Z,965.68
2018-05-18T09:48:31.218Z,965.72
2018-05-18T09:49:31.161Z,965.74
2018-05-18T09:50:31.131Z,965.66
2018-05-18T09:51:31.048Z,965.69
2018-05-18T09:52:30.993Z,965.72
2018-05-18T09:53:30.956Z,965.64
2018-05-18T09:54:30.960Z,965.65
2018-05-18T09:55:31.063Z,965.69
2018-05-18T09:56:30.772Z,965.69
2018-05-18T09:57:30.719Z,965.68
2018-05-18T09:58:30.664Z,965.67
2018-05-18T09:59:30.614Z,965.65
2018-05-18T10:00:30.554Z,965.63
2018-05-18T10:01:30.547Z,965.64
2018-05-18T10:02:30.445Z,965.63
2018-05-18T10:03:30.392Z,965.65
2018-05-18T10:04:30.338Z,965.63
2018-05-18T10:05:30.286Z,965.59
2018-05-18T10:06:30.232Z,965.63
2018-05-18T10:07:30.179Z,965.64
2018-05-18T10:08:30.125Z,965.60
2018-05-18T10:09:30.075Z,965.60
2018-05-18T10:10:30.020Z,965.63
2018-05-18T10:11:29.967Z,965.68
2018-05-18T10:12:29.967Z,965.64
2018-05-18T10:13:29.862Z,965.61
2018-05-18T10:14:29.820Z,965.64
2018-05-18T10:15:29.757Z,965.63
2018-05-18T10:16:29.704Z,965.63
2018-05-18T10:17:29.654Z,965.58
2018-05-18T10:18:29.650Z,965.57
2018-05-18T10:19:29.548Z,965.59
2018-05-18T10:20:29.495Z,965.60
2018-05-18T10:21:29.456Z,965.57
2018-05-18T10:22:29.392Z,965.57
2018-05-18T10:23:29.341Z,965.57
2018-05-18T10:24:29.290Z,965.52
2018-05-18T10:25:29.238Z,965.51
2018-05-18T10:26:29.186Z,965.50
2018-05-18T10:27:29.146Z,965.51
2018-05-18T10:28:29.083Z,965.51
2018-05-18T10:29:29.032Z,965.49
2018-05-18T10:30:28.977Z,965.47
2018-05-18T10:31:28.928Z,965.48
2018-05-18T10:32:28.874Z,965.46
2018-05-18T10:33:28.823Z,965.48
2018-05-18T10:34:28.768Z,965.48
2018-05-18T10:35:28.721Z,965.52
2018-05-18T10:36:28.666Z,965.51
2018-05-18T10:37:28.615Z,965.51
2018-05-18T10:38:28.559Z,965.47
2018-05-18T10:39:28.505Z,965.48
2018-05-18T10:40:28.452Z,965.53
2018-05-18T10:41:28.400Z,965.51
2018-05-18T10:42:28.348Z,965.58
2018-05-18T10:43:28.292Z,965.53
2018-05-18T10:44:28.239Z,965.56
2018-05-18T10:45:28.218Z,965.52
2018-05-18T10:46:28.134Z,965.49
2018-05-18T10:47:28.080Z,965.47
2018-05-18T10:48:28.028Z,965.47
2018-05-18T10:49:28.064Z,965.50
2018-05-18T10:50:27.923Z,965.49
2018-05-18T10:51:27.869Z,965.48
2018-05-18T10:52:27.817Z,965.48
2018-05-18T10:53:27.762Z,965.46
2018-05-18T10:54:27.709Z,965.44
2018-05-18T10:55:27.655Z,965.41
2018-05-18T10:56:27.602Z,965.42
2018-05-18T10:57:27.549Z,965.39
2018-05-18T10:58:27.497Z,965.39
2018-05-18T10:59:27.442Z,965.44
2018-05-18T11:00:27.389Z,965.41
2018-05-18T11:01:27.335Z,965.38
2018-05-18T11:02:27.281Z,965.42
2018-05-18T11:03:27.227Z,965.37
2018-05-18T11:04:27.174Z,965.44
2018-05-18T11:05:27.188Z,965.41
2018-05-18T11:06:27.064Z,965.45
2018-05-18T11:07:27.010Z,965.44
2018-05-18T11:08:26.955Z,965.43
2018-05-18T11:09:26.902Z,965.41
2018-05-18T11:10:26.845Z,965.41
2018-05-18T11:11:26.792Z,965.36
2018-05-18T11:12:26.737Z,965.40
2018-05-18T11:13:26.683Z,965.38
2018-05-18T11:14:26.626Z,965.38
2018-05-18T11:15:26.571Z,965.36
2018-05-18T11:16:26.517Z,965.35
2018-05-18T11:17:26.462Z,965.30
2018-05-18T11:18:26.406Z,965.33
2018-05-18T11:19:26.350Z,965.30
2018-05-18T11:20:26.296Z,965.31
2018-05-18T11:21:26.241Z,965.33
2018-05-18T11:22:26.185Z,965.35
2018-05-18T11:23:26.127Z,965.31
2018-05-18T11:24:26.073Z,965.36
2018-05-18T11:25:26.017Z,965.30
2018-05-18T11:26:26.046Z,965.36
2018-05-18T11:27:25.903Z,965.29
2018-05-18T11:28:25.848Z,965.30
2018-05-18T11:29:25.825Z,965.29
2018-05-18T11:30:25.746Z,965.23
2018-05-18T11:31:25.684Z,965.24
2018-05-18T11:32:25.618Z,965.20
2018-05-18T11:33:25.565Z,965.23
2018-05-18T11:34:25.509Z,965.20
2018-05-18T11:35:25.460Z,965.19
2018-05-18T11:36:25.396Z,965.18
2018-05-18T11:37:25.340Z,965.19
2018-05-18T11:38:25.282Z,965.15
2018-05-18T11:39:25.228Z,965.14
2018-05-18T11:40:25.171Z,965.17
2018-05-18T11:41:25.113Z,965.11
2018-05-18T11:42:25.056Z,965.15
2018-05-18T11:43:24.997Z,965.15
2018-05-18T11:44:24.941Z,965.12
2018-05-18T11:45:24.883Z,965.11
2018-05-18T11:46:24.824Z,965.11
2018-05-18T11:47:24.771Z,965.09
2018-05-18T11:48:24.715Z,965.08
2018-05-18T11:49:24.656Z,965.12
2018-05-18T11:50:24.601Z,965.10
2018-05-18T11:51:24.540Z,965.13
2018-05-18T11:52:24.484Z,965.08
2018-05-18T11:53:24.427Z,965.10
2018-05-18T11:54:24.365Z,965.08
2018-05-18T11:55:24.310Z,965.07
2018-05-18T11:56:24.255Z,965.05
2018-05-18T11:57:24.197Z,965.07
2018-05-18T11:58:24.139Z,965.04
2018-05-18T11:59:24.080Z,965.03
2018-05-18T12:00:24.023Z,965.03
2018-05-18T12:01:23.967Z,965.00
2018-05-18T12:02:23.999Z,964.98
2018-05-18T12:03:23.850Z,964.99
2018-05-18T12:04:23.792Z,964.89
2018-05-18T12:05:23.734Z,964.92
2018-05-18T12:06:23.676Z,964.94
2018-05-18T12:07:23.619Z,964.91
2018-05-18T12:08:23.704Z,964.96
2018-05-18T12:09:23.505Z,964.93
2018-05-18T12:10:23.448Z,964.88
2018-05-18T12:11:23.389Z,964.90
2018-05-18T12:12:23.331Z,964.91
2018-05-18T12:13:23.272Z,964.94
2018-05-18T12:14:23.216Z,964.95
2018-05-18T12:15:23.158Z,964.89
2018-05-18T12:16:23.099Z,964.89
2018-05-18T12:17:23.043Z,964.83
2018-05-18T12:18:22.985Z,964.84
2018-05-18T12:19:22.926Z,964.83
2018-05-18T12:20:22.880Z,964.88
2018-05-18T12:21:22.809Z,964.87
2018-05-18T12:22:22.750Z,964.85
2018-05-18T12:23:22.694Z,964.83
2018-05-18T12:24:22.635Z,964.87
2018-05-18T12:25:22.579Z,964.81
2018-05-18T12:26:22.519Z,964.79
2018-05-18T12:27:22.462Z,964.86